Flight Track Log - Related Links

Times and Time Zones

All times are in EDT time to prevent confusion due to time zone crossing. See the AWI3778 flight status page for this flight to view local times or setup timezone preferences in your user account.

Time Position Orientation Groundspeed Altitude Reporting Facility
EDT Latitude Longitude Course Direction KTS MPH feet Rate Location/Type
Wed 01:24:00 PM 44.2043 -73.2450 196° South  Level FlightAware Approximate
Wed 01:24:16 PM 44.3256 -73.1831 196° South 215 247 8,000  Level Boston Center
Wed 01:25:00 PM 44.1171 -73.2798 196° South  Level FlightAware Approximate
Wed 01:25:16 PM 44.2650 -73.2056 195° South 238 274 10,200  Level Boston Center
Wed 01:26:00 PM 44.0300 -73.3147 196° South  Level FlightAware Approximate
Wed 01:26:16 PM 44.2042 -73.2656 215° Southwest 262 302 12,300  Level Boston Center
Wed 01:27:00 PM 43.9428 -73.3496 196° South  Level FlightAware Approximate
Wed 01:27:16 PM 44.1369 -73.3397 218° Southwest 297 342 14,400  Level Boston Center
Wed 01:28:00 PM 43.8554 -73.3832 195° South  Level FlightAware Approximate
Wed 01:28:16 PM 44.0617 -73.3847 203° Southwest 302 348 16,800  Level Boston Center
Wed 01:29:16 PM 43.9739 -73.4150 194° South 310 357 18,600 1,550 Climbing Boston Center
Wed 01:30:16 PM 43.8839 -73.4453 194° South 327 376 19,900 700 Climbing Boston Center
Wed 01:31:16 PM 43.7919 -73.4756 193° South 338 389 20,000 900 Climbing Boston Center
Wed 01:32:16 PM 43.6917 -73.5081 193° South 343 395 21,700 1,400 Climbing Boston Center
Wed 01:33:16 PM 43.5975 -73.5381 193° South 343 395 22,800 1,150 Climbing Boston Center
Wed 01:34:16 PM 43.4994 -73.5706 194° South 348 400 24,000 1,250 Climbing Boston Center
Wed 01:35:16 PM 43.3989 -73.6003 192° South 360 414 25,300 1,000 Climbing Boston Center
Wed 01:36:16 PM 43.2986 -73.6297 192° South 370 426 26,000 350 Climbing Boston Center
Wed 01:37:16 PM 43.2025 -73.6619 194° South 370 426 26,000  Level Boston Center
Wed 01:38:16 PM 43.1106 -73.6914 193° South 375 432 26,000  Level Boston Center
Wed 01:39:16 PM 43.0142 -73.7236 194° South 369 425 26,000  Level Boston Center
Wed 01:40:16 PM 42.9158 -73.7528 192° South 364 419 26,000  Level Boston Center
Wed 01:41:16 PM 42.8156 -73.7844 193° South 364 419 26,000  Level Boston Center
Wed 01:42:16 PM 42.7314 -73.8450 208° Southwest 345 397 26,000  Level Boston Center
Wed 01:43:16 PM 42.6758 -73.9508 234° Southwest 335 386 26,000  Level Boston Center
Wed 01:44:16 PM 42.6222 -74.0625 237° Southwest 340 391 26,000  Level Boston Center
Wed 01:45:16 PM 42.5664 -74.1822 238° Southwest 350 403 26,000  Level Boston Center
Wed 01:46:16 PM 42.5125 -74.2878 235° Southwest 350 403 26,000  Level Boston Center
Wed 01:47:16 PM 42.4606 -74.3989 238° Southwest 350 403 26,000  Level Boston Center
Wed 01:48:16 PM 42.4025 -74.5067 234° Southwest 350 403 26,000  Level Boston Center
Wed 01:49:16 PM 42.3525 -74.6147 238° Southwest 350 403 26,000  Level Boston Center
Wed 01:50:16 PM 42.2983 -74.7222 236° Southwest 350 403 26,000 -967 Level Boston Center
Wed 01:52:16 PM 42.1897 -74.9328 235° Southwest 338 389 23,100 -1,392 Descending New York Center
Wed 01:53:17 PM 42.1228 -75.0042 218° Southwest 343 395 21,800 -1,388 Descending New York Center
Wed 01:54:17 PM 42.0411 -75.0714 211° Southwest 343 395 20,300 -944 Descending New York Center
Wed 01:56:15 PM 41.8844 -75.2006 212° Southwest 338 389 19,000 -607 Descending New York Center
Wed 01:57:15 PM 41.8069 -75.2650 212° Southwest 333 383 18,500 -1,131 Descending New York Center
Wed 01:58:17 PM 41.7214 -75.3314 210° Southwest 333 383 16,700 -1,623 Descending New York Center
Wed 01:59:17 PM 41.6481 -75.3903 211° Southwest 327 376 15,200 -1,525 Descending New York Center
Wed 02:00:15 PM 41.5750 -75.4489 211° Southwest 322 371 13,700 -1,322 Descending New York Center
Wed 02:01:15 PM 41.5106 -75.4997 211° Southwest 312 359 12,600 -893 Descending New York Center
Wed 02:02:16 PM 41.4417 -75.5558 211° Southwest 305 351 11,900 -347 Descending New York Center
Wed 02:03:16 PM 41.3664 -75.6169 211° Southwest 305 351 11,900  Level New York Center
Wed 02:04:17 PM 41.3039 -75.6647 210° Southwest 305 351 11,900  Level New York Center
Wed 02:05:15 PM 41.2175 -75.6889 192° South 293 337 11,900  Level New York Center
Wed 02:06:15 PM 41.1383 -75.6886 180° South 312 359 11,900  Level New York Center
Wed 02:07:16 PM 41.0531 -75.6881 180° South 312 359 11,900 50 Level New York Center
Wed 02:08:16 PM 40.9675 -75.6872 180° South 312 359 12,000 50 Climbing New York Center
Wed 02:09:16 PM 40.8739 -75.6889 181° South 312 359 12,000  Level New York Center
Wed 02:10:18 PM 40.7886 -75.6853 178° South 307 353 12,000  Level New York Center
Wed 02:11:15 PM 40.7031 -75.6847 180° South 307 353 12,000 -51 Level New York Center
Wed 02:12:15 PM 40.6261 -75.6847 180° South 307 353 11,900 -393 Descending New York Center
Wed 02:13:17 PM 40.5453 -75.6111 145° Southeast 342 394 11,200 -723 Descending FAA TRACON SMA TRACON (SMA)
Wed 02:13:38 PM 40.5269 -75.5786 127° Southeast 344 396 10,900 -732 Descending FAA TRACON SMA TRACON (SMA)
Wed 02:13:58 PM 40.5108 -75.5506 127° Southeast 338 389 10,700 -1,077 Descending FAA TRACON SMA TRACON (SMA)
Wed 02:14:17 PM 40.4925 -75.5125 122° Southeast 313 360 10,200 -1,263 Descending FAA TRACON SMA TRACON (SMA)
Wed 02:14:36 PM 40.4778 -75.4833 124° Southeast 300 345 9,900 -923 Descending FAA TRACON SMA TRACON (SMA)
Wed 02:14:56 PM 40.4642 -75.4589 126° Southeast 292 336 9,600 -900 Descending FAA TRACON SMA TRACON (SMA)
Wed 02:15:16 PM 40.4481 -75.4356 132° Southeast 264 304 9,300 -1,050 Descending FAA TRACON SMA TRACON (SMA)
Wed 02:15:36 PM 40.4258 -75.4211 154° Southeast 244 281 8,900 -1,050 Descending FAA TRACON SMA TRACON (SMA)
Wed 02:15:56 PM 40.4064 -75.4061 150° Southeast 243 280 8,600 -900 Descending FAA TRACON SMA TRACON (SMA)
Wed 02:16:16 PM 40.3875 -75.3964 159° South 238 274 8,300 -1,050 Descending FAA TRACON SMA TRACON (SMA)
Wed 02:16:36 PM 40.3644 -75.3831 156° South 236 272 7,900 -1,024 Descending FAA TRACON SMA TRACON (SMA)
Wed 02:16:57 PM 40.3486 -75.3775 165° South 230 265 7,600 -1,024 Descending FAA TRACON SMA TRACON (SMA)
Wed 02:17:17 PM 40.3294 -75.3869 201° Southwest 217 250 7,200 -900 Descending FAA TRACON SMA TRACON (SMA)
Wed 02:17:37 PM 40.3089 -75.3983 203° Southwest 210 242 7,000 -300 Descending FAA TRACON SMA TRACON (SMA)
Wed 02:17:57 PM 40.2944 -75.4056 201° Southwest 193 222 7,000  Level FAA TRACON SMA TRACON (SMA)
Wed 02:18:17 PM 40.2767 -75.4142 200° South 203 234 7,000  Level FAA TRACON SMA TRACON (SMA)
Wed 02:18:37 PM 40.2539 -75.4036 161° South 228 262 7,000  Level FAA TRACON SMA TRACON (SMA)
Wed 02:18:57 PM 40.2364 -75.3947 159° South 226 260 7,000  Level FAA TRACON SMA TRACON (SMA)
Wed 02:19:17 PM 40.2181 -75.3856 159° South 224 258 7,000  Level FAA TRACON SMA TRACON (SMA)
Wed 02:19:37 PM 40.1953 -75.3731 157° South 225 259 7,000 -150 Level FAA TRACON SMA TRACON (SMA)
Wed 02:19:57 PM 40.1789 -75.3656 161° South 225 259 6,900 -585 Descending FAA TRACON SMA TRACON (SMA)
Wed 02:20:18 PM 40.1603 -75.3556 158° South 224 258 6,600 -1,024 Descending FAA TRACON SMA TRACON (SMA)
Wed 02:20:38 PM 40.1428 -75.3303 132° Southeast 231 266 6,200 -923 Descending FAA TRACON SMA TRACON (SMA)
Wed 02:20:57 PM 40.1308 -75.3139 134° Southeast 233 268 6,000 -308 Descending FAA TRACON SMA TRACON (SMA)
Wed 02:21:17 PM 40.1131 -75.2892 133° Southeast 232 267 6,000  Level FAA TRACON SMA TRACON (SMA)
Wed 02:21:37 PM 40.0986 -75.2686 133° Southeast 233 268 6,000  Level FAA TRACON SMA TRACON (SMA)
Wed 02:21:56 PM 40.0853 -75.2486 131° Southeast 233 268 6,000  Level FAA TRACON SMA TRACON (SMA)
Wed 02:22:16 PM 40.0722 -75.2289 131° Southeast 233 268 6,000  Level FAA TRACON SMA TRACON (SMA)
Wed 02:22:37 PM 40.0581 -75.2108 136° Southeast 227 261 6,000  Level FAA TRACON SMA TRACON (SMA)
Wed 02:22:57 PM 40.0386 -75.1989 155° Southeast 213 245 6,000  Level FAA TRACON SMA TRACON (SMA)
Wed 02:23:18 PM 40.0197 -75.1928 166° South 219 252 6,000  Level FAA TRACON SMA TRACON (SMA)
Wed 02:23:39 PM 39.9967 -75.1819 160° South 223 257 6,000  Level FAA TRACON SMA TRACON (SMA)
Wed 02:23:59 PM 39.9836 -75.1628 132° Southeast 245 282 6,000  Level FAA TRACON SMA TRACON (SMA)
Wed 02:24:19 PM 39.9806 -75.1367 99° East 241 277 6,000 -450 Level FAA TRACON SMA TRACON (SMA)
Wed 02:24:39 PM 39.9867 -75.1067 75° East 230 265 5,700 -1,231 Descending FAA TRACON SMA TRACON (SMA)
Wed 02:24:58 PM 39.9922 -75.0856 71° East 222 255 5,200 -1,692 Descending FAA TRACON SMA TRACON (SMA)
Wed 02:25:18 PM 39.9967 -75.0597 77° East 217 250 4,600 -1,650 Descending FAA TRACON SMA TRACON (SMA)
Wed 02:25:38 PM 39.9903 -75.0331 107° East 180 207 4,100 -1,050 Descending FAA TRACON SMA TRACON (SMA)
Wed 02:25:58 PM 39.9769 -75.0297 169° South 156 180 3,900 -1,263 Descending FAA TRACON SMA TRACON (SMA)
Wed 02:26:16 PM 39.9669 -75.0414 222° Southwest 165 190 3,300 -1,895 Descending FAA TRACON SMA TRACON (SMA)
Wed 02:26:36 PM 39.9558 -75.0581 229° Southwest 169 194 2,700 -1,650 Descending FAA TRACON SMA TRACON (SMA)
Wed 02:26:56 PM 39.9464 -75.0719 228° Southwest 168 193 2,200 -1,050 Descending FAA TRACON SMA TRACON (SMA)
Wed 02:27:16 PM 39.9367 -75.0872 230° Southwest 166 191 2,000 -600 Descending FAA TRACON SMA TRACON (SMA)

Login

Don't have an account? Register now (free) for customized features, flight alerts, and more!